NCAR-RAP Real-Time Weather Data

Output produced by METARs form (23 June 2018  19:34 UTC)
found at http://weather.rap.ucar.edu/surface/
 
RJCN 230900Z 24011KT 9999 FEW040 SCT140 BKN170 21/13 Q0997
RJCN 230800Z 24010KT 9999 FEW040 SCT160 BKN/// 22/14 Q0996
RJCN 230700Z 25004KT 210V300 9999 FEW040 SCT150 BKN/// 23/13 Q0996
RJCN 230600Z 25014KT 9999 FEW040 SCT/// 26/14 Q0996
RJCN 230500Z 22014KT 9999 FEW040 SCT130 27/14 Q0996
RJCN 230400Z 22016KT 9999 FEW030 SCT150 27/14 Q0996
RJCN 230300Z 21017KT 9999 FEW040 27/13 Q0996
RJCN 230200Z 21014KT 9999 FEW040 26/13 Q0997
RJCN 230100Z 22015KT 9999 FEW030 25/13 Q0998
RJCN 230000Z 24016KT 9999 FEW030 BKN/// 23/14 Q0999
RJCN 222330Z 23014KT 9999 FEW030 BKN/// 22/15 Q0999
RJCN 220900Z 30001KT 9999 FEW008 18/15 Q0997
RJCN 220800Z 11003KT 070V150 9999 FEW008 19/15 Q0997
RJCN 220700Z 05004KT 020V080 9999 FEW005 SCT060 BKN080 17/16 Q0997
RJCN 220600Z 08004KT 050V120 9999 -SHRA FEW005 SCT060 BKN090 18/16 Q0997
RJCN 220500Z 07004KT 040V100 9999 FEW005 SCT035 BKN090 18/16 Q0996
RJCN 220434Z 09006KT 5000 -SHRA BR FEW005 SCT035 BKN090 17/17 Q0996 RMK 1ST005 3CU035 6AC090 A2944
RJCN 220418Z VRB02KT 4500 SHRA BR FEW005 SCT010 FEW025CB BKN030 16/16 Q0997 RMK 1ST005 3ST010 1CB025 5CU030 A2945 CB 10KM E MOV E
RJCN 220400Z 36005KT 270V040 4900 +TSRA BR FEW005 SCT010 FEW025CB BKN030 17/15 Q0997
RJCN 220300Z 04009KT 9999 -SHRA FEW010 SCT030 BKN090 18/15 Q0997
RJCN 220200Z VRB03KT 9999 VCSH FEW015 SCT025 BKN035 20/15 Q0996
RJCN 220100Z 09006KT 050V110 9999 FEW025 SCT035 BKN060 20/15 Q0997
RJCN 220000Z VRB03KT 9999 FEW020 SCT090 21/15 Q0997
RJCN 212330Z 24007KT 9999 FEW020 SCT070 BKN100 20/15 Q0997
RJCN 210900Z 20004KT 160V230 4900 BR FEW004 BKN005 BKN006 12/11 Q0999
RJCN 210800Z VRB02KT 6000 FEW003 SCT004 BKN005 11/10 Q0999